sensor_id;sensor_type;location;lat;lon;timestamp;P1;durP1;ratioP1;P2;durP2;ratioP2
47429;SDS011;33181;49.246;7.372;2023-03-23T00:01:00;3.77;;;2.40;;
47429;SDS011;33181;49.246;7.372;2023-03-23T00:03:27;4.93;;;2.50;;
47429;SDS011;33181;49.246;7.372;2023-03-23T00:05:54;3.30;;;2.50;;
47429;SDS011;33181;49.246;7.372;2023-03-23T00:08:24;3.10;;;2.30;;
47429;SDS011;33181;49.246;7.372;2023-03-23T00:10:51;3.20;;;2.60;;
47429;SDS011;33181;49.246;7.372;2023-03-23T00:13:25;3.60;;;2.70;;
47429;SDS011;33181;49.246;7.372;2023-03-23T00:15:52;2.83;;;2.37;;
47429;SDS011;33181;49.246;7.372;2023-03-23T00:18:19;3.37;;;2.60;;
47429;SDS011;33181;49.246;7.372;2023-03-23T00:20:46;3.43;;;2.67;;
47429;SDS011;33181;49.246;7.372;2023-03-23T00:23:21;2.83;;;2.37;;
47429;SDS011;33181;49.246;7.372;2023-03-23T00:25:51;3.57;;;2.50;;
47429;SDS011;33181;49.246;7.372;2023-03-23T00:28:23;3.40;;;2.60;;
47429;SDS011;33181;49.246;7.372;2023-03-23T00:30:55;3.23;;;2.60;;
47429;SDS011;33181;49.246;7.372;2023-03-23T00:33:30;2.73;;;2.30;;
47429;SDS011;33181;49.246;7.372;2023-03-23T00:36:12;3.63;;;2.50;;
47429;SDS011;33181;49.246;7.372;2023-03-23T00:38:39;3.87;;;2.80;;
47429;SDS011;33181;49.246;7.372;2023-03-23T00:41:09;3.80;;;2.47;;
47429;SDS011;33181;49.246;7.372;2023-03-23T00:43:36;3.00;;;2.40;;
47429;SDS011;33181;49.246;7.372;2023-03-23T00:46:04;4.50;;;2.70;;
47429;SDS011;33181;49.246;7.372;2023-03-23T00:48:34;2.43;;;2.13;;
47429;SDS011;33181;49.246;7.372;2023-03-23T00:51:09;3.10;;;2.37;;
47429;SDS011;33181;49.246;7.372;2023-03-23T00:53:37;3.13;;;2.60;;
47429;SDS011;33181;49.246;7.372;2023-03-23T00:56:05;2.90;;;2.40;;
47429;SDS011;33181;49.246;7.372;2023-03-23T00:58:32;3.03;;;2.60;;
47429;SDS011;33181;49.246;7.372;2023-03-23T01:00:59;2.40;;;2.20;;
47429;SDS011;33181;49.246;7.372;2023-03-23T01:03:25;3.37;;;2.40;;
47429;SDS011;33181;49.246;7.372;2023-03-23T01:05:53;3.20;;;2.40;;
47429;SDS011;33181;49.246;7.372;2023-03-23T01:08:20;3.10;;;2.53;;
47429;SDS011;33181;49.246;7.372;2023-03-23T01:10:49;3.20;;;2.40;;
47429;SDS011;33181;49.246;7.372;2023-03-23T01:13:15;2.60;;;2.30;;
47429;SDS011;33181;49.246;7.372;2023-03-23T01:15:41;3.97;;;2.60;;
47429;SDS011;33181;49.246;7.372;2023-03-23T01:18:08;2.73;;;2.10;;
47429;SDS011;33181;49.246;7.372;2023-03-23T01:20:35;2.73;;;2.13;;
47429;SDS011;33181;49.246;7.372;2023-03-23T01:23:02;4.30;;;2.70;;
47429;SDS011;33181;49.246;7.372;2023-03-23T01:25:29;4.03;;;2.47;;
47429;SDS011;33181;49.246;7.372;2023-03-23T01:28:00;2.70;;;2.37;;
47429;SDS011;33181;49.246;7.372;2023-03-23T01:30:26;3.40;;;3.00;;
47429;SDS011;33181;49.246;7.372;2023-03-23T01:32:52;3.30;;;2.37;;
47429;SDS011;33181;49.246;7.372;2023-03-23T01:35:19;2.50;;;2.23;;
47429;SDS011;33181;49.246;7.372;2023-03-23T01:37:45;3.50;;;2.50;;
47429;SDS011;33181;49.246;7.372;2023-03-23T01:40:12;3.07;;;2.47;;
47429;SDS011;33181;49.246;7.372;2023-03-23T01:42:39;3.30;;;2.43;;
47429;SDS011;33181;49.246;7.372;2023-03-23T01:48:13;3.57;;;2.40;;
47429;SDS011;33181;49.246;7.372;2023-03-23T01:51:01;3.10;;;2.53;;
47429;SDS011;33181;49.246;7.372;2023-03-23T01:53:30;3.60;;;2.57;;
47429;SDS011;33181;49.246;7.372;2023-03-23T01:56:07;4.10;;;2.60;;
47429;SDS011;33181;49.246;7.372;2023-03-23T01:58:37;3.07;;;2.43;;
47429;SDS011;33181;49.246;7.372;2023-03-23T02:01:05;3.73;;;2.60;;
47429;SDS011;33181;49.246;7.372;2023-03-23T02:03:37;3.40;;;2.50;;
47429;SDS011;33181;49.246;7.372;2023-03-23T02:06:07;3.83;;;2.80;;
47429;SDS011;33181;49.246;7.372;2023-03-23T02:08:33;4.10;;;2.90;;
47429;SDS011;33181;49.246;7.372;2023-03-23T02:11:00;3.43;;;2.70;;
47429;SDS011;33181;49.246;7.372;2023-03-23T02:13:26;3.13;;;2.60;;
47429;SDS011;33181;49.246;7.372;2023-03-23T02:15:59;3.07;;;2.57;;
47429;SDS011;33181;49.246;7.372;2023-03-23T02:21:23;3.40;;;2.43;;
47429;SDS011;33181;49.246;7.372;2023-03-23T02:24:37;3.40;;;2.60;;
47429;SDS011;33181;49.246;7.372;2023-03-23T02:30:53;2.60;;;2.30;;
47429;SDS011;33181;49.246;7.372;2023-03-23T02:36:34;3.20;;;2.57;;
47429;SDS011;33181;49.246;7.372;2023-03-23T02:39:12;3.43;;;2.60;;
47429;SDS011;33181;49.246;7.372;2023-03-23T02:41:53;3.57;;;2.60;;
47429;SDS011;33181;49.246;7.372;2023-03-23T02:44:37;2.73;;;2.40;;
47429;SDS011;33181;49.246;7.372;2023-03-23T02:47:08;3.90;;;2.40;;
47429;SDS011;33181;49.246;7.372;2023-03-23T02:49:41;3.17;;;2.50;;
47429;SDS011;33181;49.246;7.372;2023-03-23T02:52:14;3.57;;;2.73;;
47429;SDS011;33181;49.246;7.372;2023-03-23T02:54:47;3.17;;;2.50;;
47429;SDS011;33181;49.246;7.372;2023-03-23T02:57:14;3.67;;;2.40;;
47429;SDS011;33181;49.246;7.372;2023-03-23T02:59:41;3.00;;;2.50;;
47429;SDS011;33181;49.246;7.372;2023-03-23T03:02:09;3.17;;;2.50;;
47429;SDS011;33181;49.246;7.372;2023-03-23T03:04:59;3.30;;;2.50;;
47429;SDS011;33181;49.246;7.372;2023-03-23T03:10:29;2.90;;;2.40;;
47429;SDS011;33181;49.246;7.372;2023-03-23T03:16:22;2.90;;;2.50;;
47429;SDS011;33181;49.246;7.372;2023-03-23T03:21:35;6.33;;;3.77;;
47429;SDS011;33181;49.246;7.372;2023-03-23T03:24:06;3.90;;;2.63;;
47429;SDS011;33181;49.246;7.372;2023-03-23T03:26:36;3.80;;;2.80;;
47429;SDS011;33181;49.246;7.372;2023-03-23T03:29:10;4.30;;;3.10;;
47429;SDS011;33181;49.246;7.372;2023-03-23T03:31:38;3.80;;;2.80;;
47429;SDS011;33181;49.246;7.372;2023-03-23T03:34:10;3.53;;;2.70;;
47429;SDS011;33181;49.246;7.372;2023-03-23T03:36:37;3.30;;;2.70;;
47429;SDS011;33181;49.246;7.372;2023-03-23T03:39:07;3.97;;;3.00;;
47429;SDS011;33181;49.246;7.372;2023-03-23T03:41:34;4.17;;;2.70;;
47429;SDS011;33181;49.246;7.372;2023-03-23T03:44:02;5.37;;;2.93;;
47429;SDS011;33181;49.246;7.372;2023-03-23T03:46:29;4.73;;;2.80;;
47429;SDS011;33181;49.246;7.372;2023-03-23T03:48:56;4.00;;;2.90;;
47429;SDS011;33181;49.246;7.372;2023-03-23T03:51:23;3.43;;;2.70;;
47429;SDS011;33181;49.246;7.372;2023-03-23T03:53:51;3.63;;;2.87;;
47429;SDS011;33181;49.246;7.372;2023-03-23T03:56:17;3.50;;;2.80;;
47429;SDS011;33181;49.246;7.372;2023-03-23T03:58:42;3.80;;;2.90;;
47429;SDS011;33181;49.246;7.372;2023-03-23T04:01:11;5.03;;;2.53;;
47429;SDS011;33181;49.246;7.372;2023-03-23T04:03:38;3.63;;;3.03;;
47429;SDS011;33181;49.246;7.372;2023-03-23T04:06:04;3.80;;;2.90;;
47429;SDS011;33181;49.246;7.372;2023-03-23T04:08:31;4.13;;;3.00;;
47429;SDS011;33181;49.246;7.372;2023-03-23T04:10:57;3.43;;;2.87;;
47429;SDS011;33181;49.246;7.372;2023-03-23T04:13:23;4.10;;;2.90;;
47429;SDS011;33181;49.246;7.372;2023-03-23T04:15:49;4.10;;;3.50;;
47429;SDS011;33181;49.246;7.372;2023-03-23T04:18:15;4.43;;;3.07;;
47429;SDS011;33181;49.246;7.372;2023-03-23T04:20:43;4.33;;;3.17;;
47429;SDS011;33181;49.246;7.372;2023-03-23T04:23:12;4.50;;;3.20;;
47429;SDS011;33181;49.246;7.372;2023-03-23T04:25:39;3.90;;;3.00;;
47429;SDS011;33181;49.246;7.372;2023-03-23T04:28:07;5.00;;;3.13;;
47429;SDS011;33181;49.246;7.372;2023-03-23T04:30:35;4.40;;;3.20;;
47429;SDS011;33181;49.246;7.372;2023-03-23T04:33:03;4.57;;;3.23;;
47429;SDS011;33181;49.246;7.372;2023-03-23T04:35:29;3.90;;;3.03;;
47429;SDS011;33181;49.246;7.372;2023-03-23T04:37:55;4.40;;;3.43;;
47429;SDS011;33181;49.246;7.372;2023-03-23T04:40:22;7.37;;;3.33;;
47429;SDS011;33181;49.246;7.372;2023-03-23T04:42:49;6.27;;;3.80;;
47429;SDS011;33181;49.246;7.372;2023-03-23T04:45:18;4.40;;;3.20;;
47429;SDS011;33181;49.246;7.372;2023-03-23T04:47:47;5.43;;;3.63;;
47429;SDS011;33181;49.246;7.372;2023-03-23T04:50:22;5.33;;;3.50;;
47429;SDS011;33181;49.246;7.372;2023-03-23T04:52:52;6.00;;;3.77;;
47429;SDS011;33181;49.246;7.372;2023-03-23T04:55:22;4.17;;;3.50;;
47429;SDS011;33181;49.246;7.372;2023-03-23T04:57:50;4.10;;;3.30;;
47429;SDS011;33181;49.246;7.372;2023-03-23T05:00:17;5.10;;;3.47;;
47429;SDS011;33181;49.246;7.372;2023-03-23T05:02:46;4.20;;;3.60;;
47429;SDS011;33181;49.246;7.372;2023-03-23T05:05:16;5.70;;;3.50;;
47429;SDS011;33181;49.246;7.372;2023-03-23T05:07:44;5.73;;;3.60;;
47429;SDS011;33181;49.246;7.372;2023-03-23T05:10:10;7.07;;;3.33;;
47429;SDS011;33181;49.246;7.372;2023-03-23T05:12:38;5.40;;;3.43;;
47429;SDS011;33181;49.246;7.372;2023-03-23T05:15:04;8.37;;;3.50;;
47429;SDS011;33181;49.246;7.372;2023-03-23T05:17:31;4.53;;;3.70;;
47429;SDS011;33181;49.246;7.372;2023-03-23T05:19:59;3.70;;;3.27;;
47429;SDS011;33181;49.246;7.372;2023-03-23T05:22:28;4.60;;;3.70;;
47429;SDS011;33181;49.246;7.372;2023-03-23T05:24:57;4.20;;;3.33;;
47429;SDS011;33181;49.246;7.372;2023-03-23T05:27:24;7.37;;;3.83;;
47429;SDS011;33181;49.246;7.372;2023-03-23T05:29:52;5.93;;;3.63;;
47429;SDS011;33181;49.246;7.372;2023-03-23T05:32:18;6.70;;;3.73;;
47429;SDS011;33181;49.246;7.372;2023-03-23T05:34:44;5.90;;;3.60;;
47429;SDS011;33181;49.246;7.372;2023-03-23T05:37:11;4.77;;;3.30;;
47429;SDS011;33181;49.246;7.372;2023-03-23T05:39:38;5.20;;;3.70;;
47429;SDS011;33181;49.246;7.372;2023-03-23T05:42:05;6.87;;;3.77;;
47429;SDS011;33181;49.246;7.372;2023-03-23T05:44:32;6.43;;;3.70;;
47429;SDS011;33181;49.246;7.372;2023-03-23T05:46:58;5.30;;;3.80;;
47429;SDS011;33181;49.246;7.372;2023-03-23T05:49:24;8.27;;;4.30;;
47429;SDS011;33181;49.246;7.372;2023-03-23T05:51:51;5.00;;;3.63;;
47429;SDS011;33181;49.246;7.372;2023-03-23T05:54:17;5.47;;;3.73;;
47429;SDS011;33181;49.246;7.372;2023-03-23T05:56:43;4.93;;;3.47;;
47429;SDS011;33181;49.246;7.372;2023-03-23T05:59:09;4.33;;;3.40;;
47429;SDS011;33181;49.246;7.372;2023-03-23T06:01:35;5.93;;;4.10;;
47429;SDS011;33181;49.246;7.372;2023-03-23T06:04:01;5.73;;;3.70;;
47429;SDS011;33181;49.246;7.372;2023-03-23T06:06:30;6.27;;;3.80;;
47429;SDS011;33181;49.246;7.372;2023-03-23T06:08:57;5.40;;;3.77;;
47429;SDS011;33181;49.246;7.372;2023-03-23T06:11:23;4.67;;;3.63;;
47429;SDS011;33181;49.246;7.372;2023-03-23T06:13:50;12.33;;;4.17;;
47429;SDS011;33181;49.246;7.372;2023-03-23T06:16:17;5.53;;;4.27;;
47429;SDS011;33181;49.246;7.372;2023-03-23T06:18:43;8.70;;;4.00;;
47429;SDS011;33181;49.246;7.372;2023-03-23T06:21:10;7.20;;;3.93;;
47429;SDS011;33181;49.246;7.372;2023-03-23T06:23:37;7.33;;;3.90;;
47429;SDS011;33181;49.246;7.372;2023-03-23T06:26:04;4.73;;;3.73;;
47429;SDS011;33181;49.246;7.372;2023-03-23T06:28:32;5.20;;;3.70;;
47429;SDS011;33181;49.246;7.372;2023-03-23T06:31:02;4.80;;;3.50;;
47429;SDS011;33181;49.246;7.372;2023-03-23T06:33:31;4.30;;;3.50;;
47429;SDS011;33181;49.246;7.372;2023-03-23T06:35:59;4.73;;;3.63;;
47429;SDS011;33181;49.246;7.372;2023-03-23T06:38:25;9.13;;;3.50;;
47429;SDS011;33181;49.246;7.372;2023-03-23T06:40:54;5.10;;;3.80;;
47429;SDS011;33181;49.246;7.372;2023-03-23T06:43:22;5.67;;;3.23;;
47429;SDS011;33181;49.246;7.372;2023-03-23T06:45:48;6.53;;;3.67;;
47429;SDS011;33181;49.246;7.372;2023-03-23T06:48:15;5.93;;;3.90;;
47429;SDS011;33181;49.246;7.372;2023-03-23T06:50:44;8.83;;;5.57;;
47429;SDS011;33181;49.246;7.372;2023-03-23T06:53:11;5.67;;;4.23;;
47429;SDS011;33181;49.246;7.372;2023-03-23T06:55:37;6.63;;;4.10;;
47429;SDS011;33181;49.246;7.372;2023-03-23T06:58:07;5.47;;;4.20;;
47429;SDS011;33181;49.246;7.372;2023-03-23T07:00:33;7.63;;;4.40;;
47429;SDS011;33181;49.246;7.372;2023-03-23T07:02:59;4.57;;;3.50;;
47429;SDS011;33181;49.246;7.372;2023-03-23T07:05:25;5.90;;;3.80;;
47429;SDS011;33181;49.246;7.372;2023-03-23T07:07:51;5.70;;;3.60;;
47429;SDS011;33181;49.246;7.372;2023-03-23T07:10:17;5.47;;;3.10;;
47429;SDS011;33181;49.246;7.372;2023-03-23T07:12:43;5.50;;;3.70;;
47429;SDS011;33181;49.246;7.372;2023-03-23T07:15:09;4.80;;;3.57;;
47429;SDS011;33181;49.246;7.372;2023-03-23T07:17:36;6.60;;;3.93;;
47429;SDS011;33181;49.246;7.372;2023-03-23T07:20:03;6.07;;;3.70;;
47429;SDS011;33181;49.246;7.372;2023-03-23T07:22:30;6.80;;;4.00;;
47429;SDS011;33181;49.246;7.372;2023-03-23T07:24:56;6.53;;;4.53;;
47429;SDS011;33181;49.246;7.372;2023-03-23T07:27:22;6.10;;;3.50;;
47429;SDS011;33181;49.246;7.372;2023-03-23T07:29:48;5.67;;;3.70;;
47429;SDS011;33181;49.246;7.372;2023-03-23T07:32:14;7.43;;;3.77;;
47429;SDS011;33181;49.246;7.372;2023-03-23T07:34:40;7.93;;;3.77;;
47429;SDS011;33181;49.246;7.372;2023-03-23T07:37:06;4.83;;;3.50;;
47429;SDS011;33181;49.246;7.372;2023-03-23T07:39:32;5.40;;;3.80;;
47429;SDS011;33181;49.246;7.372;2023-03-23T07:41:59;5.00;;;3.80;;
47429;SDS011;33181;49.246;7.372;2023-03-23T07:44:25;6.27;;;3.90;;
47429;SDS011;33181;49.246;7.372;2023-03-23T07:46:51;5.53;;;3.70;;
47429;SDS011;33181;49.246;7.372;2023-03-23T07:49:17;4.83;;;3.63;;
47429;SDS011;33181;49.246;7.372;2023-03-23T07:51:44;5.30;;;3.53;;
47429;SDS011;33181;49.246;7.372;2023-03-23T07:54:10;6.73;;;4.10;;
47429;SDS011;33181;49.246;7.372;2023-03-23T07:56:37;5.67;;;3.90;;
47429;SDS011;33181;49.246;7.372;2023-03-23T07:59:05;7.23;;;3.90;;
47429;SDS011;33181;49.246;7.372;2023-03-23T08:01:32;7.13;;;4.13;;
47429;SDS011;33181;49.246;7.372;2023-03-23T08:03:58;8.93;;;4.30;;
47429;SDS011;33181;49.246;7.372;2023-03-23T08:06:24;6.13;;;3.73;;
47429;SDS011;33181;49.246;7.372;2023-03-23T08:08:52;4.73;;;3.50;;
47429;SDS011;33181;49.246;7.372;2023-03-23T08:11:18;7.13;;;3.60;;
47429;SDS011;33181;49.246;7.372;2023-03-23T08:13:46;10.00;;;4.57;;
47429;SDS011;33181;49.246;7.372;2023-03-23T08:16:12;8.20;;;5.60;;
47429;SDS011;33181;49.246;7.372;2023-03-23T08:18:38;5.63;;;4.00;;
47429;SDS011;33181;49.246;7.372;2023-03-23T08:21:05;6.80;;;4.80;;
47429;SDS011;33181;49.246;7.372;2023-03-23T08:23:34;7.40;;;4.73;;
47429;SDS011;33181;49.246;7.372;2023-03-23T08:26:07;5.80;;;4.13;;
47429;SDS011;33181;49.246;7.372;2023-03-23T08:28:34;5.87;;;4.40;;
47429;SDS011;33181;49.246;7.372;2023-03-23T08:31:05;7.00;;;4.57;;
47429;SDS011;33181;49.246;7.372;2023-03-23T08:33:33;6.70;;;4.20;;
47429;SDS011;33181;49.246;7.372;2023-03-23T08:35:59;4.80;;;3.70;;
47429;SDS011;33181;49.246;7.372;2023-03-23T08:38:26;7.67;;;3.87;;
47429;SDS011;33181;49.246;7.372;2023-03-23T08:40:57;6.00;;;4.40;;
47429;SDS011;33181;49.246;7.372;2023-03-23T08:43:28;5.10;;;3.90;;
47429;SDS011;33181;49.246;7.372;2023-03-23T08:45:54;5.90;;;4.03;;
47429;SDS011;33181;49.246;7.372;2023-03-23T08:48:20;5.17;;;3.80;;
47429;SDS011;33181;49.246;7.372;2023-03-23T08:50:48;7.30;;;4.50;;
47429;SDS011;33181;49.246;7.372;2023-03-23T08:53:15;5.37;;;4.00;;
47429;SDS011;33181;49.246;7.372;2023-03-23T08:55:41;7.40;;;4.17;;
47429;SDS011;33181;49.246;7.372;2023-03-23T08:58:07;7.00;;;4.20;;
47429;SDS011;33181;49.246;7.372;2023-03-23T09:00:34;5.53;;;4.07;;
47429;SDS011;33181;49.246;7.372;2023-03-23T09:03:00;11.00;;;6.60;;
47429;SDS011;33181;49.246;7.372;2023-03-23T09:05:27;9.87;;;6.33;;
47429;SDS011;33181;49.246;7.372;2023-03-23T09:07:54;8.97;;;5.70;;
47429;SDS011;33181;49.246;7.372;2023-03-23T09:10:25;9.00;;;5.83;;
47429;SDS011;33181;49.246;7.372;2023-03-23T09:12:55;6.13;;;4.37;;
47429;SDS011;33181;49.246;7.372;2023-03-23T09:15:24;10.50;;;6.80;;
47429;SDS011;33181;49.246;7.372;2023-03-23T09:17:51;6.20;;;4.63;;
47429;SDS011;33181;49.246;7.372;2023-03-23T09:20:22;8.83;;;6.60;;
47429;SDS011;33181;49.246;7.372;2023-03-23T09:22:52;7.00;;;4.90;;
47429;SDS011;33181;49.246;7.372;2023-03-23T09:25:20;10.40;;;6.70;;
47429;SDS011;33181;49.246;7.372;2023-03-23T09:27:51;10.20;;;7.20;;
47429;SDS011;33181;49.246;7.372;2023-03-23T09:30:21;7.50;;;5.57;;
47429;SDS011;33181;49.246;7.372;2023-03-23T09:32:52;11.07;;;7.00;;
47429;SDS011;33181;49.246;7.372;2023-03-23T09:35:19;8.47;;;6.60;;
47429;SDS011;33181;49.246;7.372;2023-03-23T09:37:49;12.07;;;6.63;;
47429;SDS011;33181;49.246;7.372;2023-03-23T09:40:18;6.30;;;5.20;;
47429;SDS011;33181;49.246;7.372;2023-03-23T09:43:05;8.10;;;5.90;;
47429;SDS011;33181;49.246;7.372;2023-03-23T09:49:10;9.67;;;6.13;;
47429;SDS011;33181;49.246;7.372;2023-03-23T09:54:42;6.30;;;4.73;;
47429;SDS011;33181;49.246;7.372;2023-03-23T09:57:55;7.10;;;4.57;;
47429;SDS011;33181;49.246;7.372;2023-03-23T10:00:29;8.83;;;4.90;;
47429;SDS011;33181;49.246;7.372;2023-03-23T10:03:21;6.23;;;4.43;;
47429;SDS011;33181;49.246;7.372;2023-03-23T10:05:55;5.37;;;4.67;;
47429;SDS011;33181;49.246;7.372;2023-03-23T10:08:22;6.60;;;4.50;;
47429;SDS011;33181;49.246;7.372;2023-03-23T10:11:03;5.20;;;4.30;;
47429;SDS011;33181;49.246;7.372;2023-03-23T10:14:03;4.87;;;4.17;;
47429;SDS011;33181;49.246;7.372;2023-03-23T10:19:21;5.80;;;4.67;;
47429;SDS011;33181;49.246;7.372;2023-03-23T10:21:57;7.17;;;4.57;;
47429;SDS011;33181;49.246;7.372;2023-03-23T10:24:46;7.57;;;4.77;;
47429;SDS011;33181;49.246;7.372;2023-03-23T10:27:32;9.10;;;5.50;;
47429;SDS011;33181;49.246;7.372;2023-03-23T10:30:13;7.87;;;6.27;;
47429;SDS011;33181;49.246;7.372;2023-03-23T10:33:08;7.70;;;6.70;;
47429;SDS011;33181;49.246;7.372;2023-03-23T10:35:52;7.27;;;6.30;;
47429;SDS011;33181;49.246;7.372;2023-03-23T10:38:33;9.03;;;7.80;;
47429;SDS011;33181;49.246;7.372;2023-03-23T10:41:13;7.37;;;6.60;;
47429;SDS011;33181;49.246;7.372;2023-03-23T10:43:43;8.43;;;6.10;;
47429;SDS011;33181;49.246;7.372;2023-03-23T10:49:04;6.27;;;5.67;;
47429;SDS011;33181;49.246;7.372;2023-03-23T10:51:37;6.10;;;5.00;;
47429;SDS011;33181;49.246;7.372;2023-03-23T10:54:09;6.37;;;5.13;;
47429;SDS011;33181;49.246;7.372;2023-03-23T10:56:42;5.93;;;5.23;;
47429;SDS011;33181;49.246;7.372;2023-03-23T10:59:14;6.90;;;5.23;;
47429;SDS011;33181;49.246;7.372;2023-03-23T11:01:52;6.00;;;4.50;;
47429;SDS011;33181;49.246;7.372;2023-03-23T11:04:23;5.37;;;4.30;;
47429;SDS011;33181;49.246;7.372;2023-03-23T11:06:51;6.87;;;4.63;;
47429;SDS011;33181;49.246;7.372;2023-03-23T11:09:20;6.47;;;4.60;;
47429;SDS011;33181;49.246;7.372;2023-03-23T11:11:58;6.20;;;3.93;;
47429;SDS011;33181;49.246;7.372;2023-03-23T11:14:25;5.33;;;4.33;;
47429;SDS011;33181;49.246;7.372;2023-03-23T11:16:59;4.33;;;3.70;;
47429;SDS011;33181;49.246;7.372;2023-03-23T11:19:29;5.00;;;4.00;;
47429;SDS011;33181;49.246;7.372;2023-03-23T11:24:52;5.27;;;4.20;;
47429;SDS011;33181;49.246;7.372;2023-03-23T11:27:21;4.83;;;4.33;;
47429;SDS011;33181;49.246;7.372;2023-03-23T11:29:55;5.10;;;4.30;;
47429;SDS011;33181;49.246;7.372;2023-03-23T11:32:26;6.13;;;4.40;;
47429;SDS011;33181;49.246;7.372;2023-03-23T11:34:59;5.00;;;4.40;;
47429;SDS011;33181;49.246;7.372;2023-03-23T11:37:33;5.80;;;4.70;;
47429;SDS011;33181;49.246;7.372;2023-03-23T11:45:13;6.60;;;5.67;;
47429;SDS011;33181;49.246;7.372;2023-03-23T11:47:49;6.07;;;5.27;;
47429;SDS011;33181;49.246;7.372;2023-03-23T11:50:24;6.53;;;5.30;;
47429;SDS011;33181;49.246;7.372;2023-03-23T11:55:54;5.93;;;5.03;;
47429;SDS011;33181;49.246;7.372;2023-03-23T11:58:44;6.80;;;5.27;;
47429;SDS011;33181;49.246;7.372;2023-03-23T12:16:02;4.60;;;3.70;;
47429;SDS011;33181;49.246;7.372;2023-03-23T12:18:55;6.13;;;3.50;;
47429;SDS011;33181;49.246;7.372;2023-03-23T12:21:54;4.53;;;3.53;;
47429;SDS011;33181;49.246;7.372;2023-03-23T12:42:00;4.43;;;3.93;;
47429;SDS011;33181;49.246;7.372;2023-03-23T12:44:47;5.20;;;4.00;;
47429;SDS011;33181;49.246;7.372;2023-03-23T12:52:57;5.50;;;4.27;;
47429;SDS011;33181;49.246;7.372;2023-03-23T12:55:50;4.63;;;3.80;;
47429;SDS011;33181;49.246;7.372;2023-03-23T12:58:58;4.90;;;3.33;;
47429;SDS011;33181;49.246;7.372;2023-03-23T13:01:46;5.20;;;3.30;;
47429;SDS011;33181;49.246;7.372;2023-03-23T13:04:22;4.33;;;3.20;;
47429;SDS011;33181;49.246;7.372;2023-03-23T13:06:56;4.23;;;3.40;;
47429;SDS011;33181;49.246;7.372;2023-03-23T13:09:30;4.13;;;3.50;;
47429;SDS011;33181;49.246;7.372;2023-03-23T13:12:23;3.90;;;3.10;;
47429;SDS011;33181;49.246;7.372;2023-03-23T13:14:53;4.20;;;2.90;;
47429;SDS011;33181;49.246;7.372;2023-03-23T13:17:36;3.80;;;2.57;;
47429;SDS011;33181;49.246;7.372;2023-03-23T13:26:08;4.63;;;2.70;;
47429;SDS011;33181;49.246;7.372;2023-03-23T13:39:33;3.73;;;3.00;;
47429;SDS011;33181;49.246;7.372;2023-03-23T13:55:29;4.13;;;2.80;;
47429;SDS011;33181;49.246;7.372;2023-03-23T14:08:24;5.00;;;3.60;;
47429;SDS011;33181;49.246;7.372;2023-03-23T14:19:36;6.30;;;4.47;;
47429;SDS011;33181;49.246;7.372;2023-03-23T14:21:57;4.03;;;3.07;;
47429;SDS011;33181;49.246;7.372;2023-03-23T14:24:30;8.43;;;6.07;;
47429;SDS011;33181;49.246;7.372;2023-03-23T14:29:39;9.80;;;5.27;;
47429;SDS011;33181;49.246;7.372;2023-03-23T14:32:06;7.33;;;4.10;;
47429;SDS011;33181;49.246;7.372;2023-03-23T14:34:39;6.33;;;3.10;;
47429;SDS011;33181;49.246;7.372;2023-03-23T14:37:05;6.37;;;3.60;;
47429;SDS011;33181;49.246;7.372;2023-03-23T14:39:38;5.77;;;3.80;;
47429;SDS011;33181;49.246;7.372;2023-03-23T14:42:04;5.80;;;3.57;;
47429;SDS011;33181;49.246;7.372;2023-03-23T14:44:39;7.13;;;3.07;;
47429;SDS011;33181;49.246;7.372;2023-03-23T14:47:25;5.40;;;3.93;;
47429;SDS011;33181;49.246;7.372;2023-03-23T14:50:05;6.93;;;3.03;;
47429;SDS011;33181;49.246;7.372;2023-03-23T14:52:48;4.37;;;3.53;;
47429;SDS011;33181;49.246;7.372;2023-03-23T14:55:19;5.33;;;3.60;;
47429;SDS011;33181;49.246;7.372;2023-03-23T14:57:47;9.37;;;3.80;;
47429;SDS011;33181;49.246;7.372;2023-03-23T15:00:15;4.57;;;3.20;;
47429;SDS011;33181;49.246;7.372;2023-03-23T15:02:51;3.70;;;2.67;;
47429;SDS011;33181;49.246;7.372;2023-03-23T15:05:28;3.97;;;3.20;;
47429;SDS011;33181;49.246;7.372;2023-03-23T15:10:54;5.73;;;3.07;;
47429;SDS011;33181;49.246;7.372;2023-03-23T15:13:28;4.30;;;3.37;;
47429;SDS011;33181;49.246;7.372;2023-03-23T15:16:01;4.10;;;3.20;;
47429;SDS011;33181;49.246;7.372;2023-03-23T15:18:37;4.27;;;3.20;;
47429;SDS011;33181;49.246;7.372;2023-03-23T15:21:47;4.70;;;3.10;;
47429;SDS011;33181;49.246;7.372;2023-03-23T15:24:02;3.70;;;2.87;;
47429;SDS011;33181;49.246;7.372;2023-03-23T15:26:45;4.53;;;3.00;;
47429;SDS011;33181;49.246;7.372;2023-03-23T15:29:13;4.20;;;3.30;;
47429;SDS011;33181;49.246;7.372;2023-03-23T15:31:44;5.00;;;3.50;;
47429;SDS011;33181;49.246;7.372;2023-03-23T15:34:32;4.30;;;2.93;;
47429;SDS011;33181;49.246;7.372;2023-03-23T15:37:17;3.90;;;2.90;;
47429;SDS011;33181;49.246;7.372;2023-03-23T15:39:55;4.30;;;3.00;;
47429;SDS011;33181;49.246;7.372;2023-03-23T15:42:24;4.30;;;3.30;;
47429;SDS011;33181;49.246;7.372;2023-03-23T15:47:43;5.13;;;3.40;;
47429;SDS011;33181;49.246;7.372;2023-03-23T15:50:16;4.80;;;3.80;;
47429;SDS011;33181;49.246;7.372;2023-03-23T15:52:45;4.57;;;3.37;;
47429;SDS011;33181;49.246;7.372;2023-03-23T15:55:24;4.90;;;3.87;;
47429;SDS011;33181;49.246;7.372;2023-03-23T15:57:53;5.13;;;3.70;;
47429;SDS011;33181;49.246;7.372;2023-03-23T16:00:23;8.33;;;3.60;;
47429;SDS011;33181;49.246;7.372;2023-03-23T16:02:55;6.27;;;3.90;;
47429;SDS011;33181;49.246;7.372;2023-03-23T16:05:25;6.73;;;4.97;;
47429;SDS011;33181;49.246;7.372;2023-03-23T16:07:52;6.43;;;4.87;;
47429;SDS011;33181;49.246;7.372;2023-03-23T16:10:19;4.90;;;4.20;;
47429;SDS011;33181;49.246;7.372;2023-03-23T16:12:48;5.80;;;4.50;;
47429;SDS011;33181;49.246;7.372;2023-03-23T16:15:14;7.33;;;5.30;;
47429;SDS011;33181;49.246;7.372;2023-03-23T16:17:41;6.93;;;4.97;;
47429;SDS011;33181;49.246;7.372;2023-03-23T16:20:09;6.90;;;5.17;;
47429;SDS011;33181;49.246;7.372;2023-03-23T16:22:35;6.77;;;5.83;;
47429;SDS011;33181;49.246;7.372;2023-03-23T16:25:01;10.60;;;5.63;;
47429;SDS011;33181;49.246;7.372;2023-03-23T16:27:27;15.33;;;10.83;;
47429;SDS011;33181;49.246;7.372;2023-03-23T16:29:53;10.23;;;7.57;;
47429;SDS011;33181;49.246;7.372;2023-03-23T16:32:19;9.90;;;7.73;;
47429;SDS011;33181;49.246;7.372;2023-03-23T16:34:45;9.87;;;6.63;;
47429;SDS011;33181;49.246;7.372;2023-03-23T16:37:13;10.47;;;7.80;;
47429;SDS011;33181;49.246;7.372;2023-03-23T16:39:38;11.43;;;7.13;;
47429;SDS011;33181;49.246;7.372;2023-03-23T16:42:04;8.87;;;7.37;;
47429;SDS011;33181;49.246;7.372;2023-03-23T16:44:30;10.57;;;8.00;;
47429;SDS011;33181;49.246;7.372;2023-03-23T16:46:56;15.70;;;10.80;;
47429;SDS011;33181;49.246;7.372;2023-03-23T16:49:21;13.40;;;9.60;;
47429;SDS011;33181;49.246;7.372;2023-03-23T16:51:47;11.60;;;8.77;;
47429;SDS011;33181;49.246;7.372;2023-03-23T16:54:13;14.90;;;11.60;;
47429;SDS011;33181;49.246;7.372;2023-03-23T16:56:39;15.90;;;10.53;;
47429;SDS011;33181;49.246;7.372;2023-03-23T16:59:09;16.10;;;11.33;;
47429;SDS011;33181;49.246;7.372;2023-03-23T17:01:35;14.10;;;10.87;;
47429;SDS011;33181;49.246;7.372;2023-03-23T17:04:01;10.73;;;9.00;;
47429;SDS011;33181;49.246;7.372;2023-03-23T17:06:28;9.63;;;7.70;;
47429;SDS011;33181;49.246;7.372;2023-03-23T17:08:55;10.33;;;7.57;;
47429;SDS011;33181;49.246;7.372;2023-03-23T17:11:20;10.33;;;7.23;;
47429;SDS011;33181;49.246;7.372;2023-03-23T17:13:52;9.43;;;7.10;;
47429;SDS011;33181;49.246;7.372;2023-03-23T17:16:18;9.33;;;7.03;;
47429;SDS011;33181;49.246;7.372;2023-03-23T17:18:43;8.93;;;7.10;;
47429;SDS011;33181;49.246;7.372;2023-03-23T17:21:09;12.30;;;7.27;;
47429;SDS011;33181;49.246;7.372;2023-03-23T17:23:35;10.30;;;7.47;;
47429;SDS011;33181;49.246;7.372;2023-03-23T17:26:01;8.73;;;7.00;;